Amr R — XUAX5 — position and weather

sailwx.info

Track history (hours):
 
Tides and Currents Weather Stations Pressure Air Temp Water Temp Dewpoint Dewpoint Depression Visibility Wind Speed Wind Dir Waves Ship Positions

Amr R

Last reported at 2014-Sep-16 22:33 UTC. Time now 2014-Sep-21 14:12 UTC.
Position N 44°43' E 037°48'.

Length 130 m; draft 5 m.

Type: Cargo ship. MMSI: 514427000.

Date/timePositionNaut miles runAvg speedWind from/ knotsBaromVisibWave heightAir tempDewpointWater temp
2014-Sep-16 22:33N 44°43' E 037°48'3 2.6
2014-Sep-16 21:33N 44°41' E 037°50'7 7.2
2014-Sep-16 20:33N 44°34' E 037°49'8 8.2
2014-Sep-16 19:33N 44°29' E 037°40'  
2014-Sep-14 09:32N 41°01' E 028°60'7 6.6
2014-Sep-14 08:31N 40°55' E 028°57'10 9.4
2014-Sep-14 07:31N 40°50' E 028°46'9 0.8
2014-Sep-13 21:30N 40°43' E 028°41'174 7.1
2014-Sep-12 21:06N 38°53' E 025°45'5 9.1
2014-Sep-12 20:33N 38°48' E 025°45'12 9.0
2014-Sep-12 19:15N 38°36' E 025°45'55 9.6
2014-Sep-12 13:33N 37°42' E 025°52'10 9.7
2014-Sep-12 12:33N 37°32' E 025°54'9 9.2
2014-Sep-12 11:33N 37°25' E 026°01'10 9.8
2014-Sep-12 10:33N 37°18' E 026°10'10 9.8
2014-Sep-12 09:33N 37°12' E 026°19'10 9.7
2014-Sep-12 08:33N 37°06' E 026°29'10 9.8
2014-Sep-12 07:33N 36°58' E 026°37'10 9.5
2014-Sep-12 06:32N 36°51' E 026°44'10 9.4
2014-Sep-12 05:31N 36°43' E 026°51'9 9.1
2014-Sep-12 04:32N 36°36' E 026°58'10 9.3
2014-Sep-12 03:30N 36°27' E 027°03'  
Track history (hours):
 
Tides and Currents Weather Stations Pressure Air Temp Water Temp Dewpoint Dewpoint Depression Visibility Wind Speed Wind Dir Waves Ship Positions

Amr R

Last reported at 2014-Sep-16 22:33 UTC. Time now 2014-Sep-21 14:12 UTC.
Position N 44°43' E 037°48'.

Length 130 m; draft 5 m.

Type: Cargo ship. MMSI: 514427000.

Date/timePositionNaut miles runAvg speedWind from/ knotsBaromVisibWave heightAir tempDewpointWater temp
2014-Sep-16 22:33N 44°43' E 037°48'3 2.6
2014-Sep-16 21:33N 44°41' E 037°50'7 7.2
2014-Sep-16 20:33N 44°34' E 037°49'8 8.2
2014-Sep-16 19:33N 44°29' E 037°40'  
2014-Sep-14 09:32N 41°01' E 028°60'7 6.6
2014-Sep-14 08:31N 40°55' E 028°57'10 9.4
2014-Sep-14 07:31N 40°50' E 028°46'9 0.8
2014-Sep-13 21:30N 40°43' E 028°41'174 7.1
2014-Sep-12 21:06N 38°53' E 025°45'5 9.1
2014-Sep-12 20:33N 38°48' E 025°45'12 9.0
2014-Sep-12 19:15N 38°36' E 025°45'55 9.6
2014-Sep-12 13:33N 37°42' E 025°52'10 9.7
2014-Sep-12 12:33N 37°32' E 025°54'9 9.2
2014-Sep-12 11:33N 37°25' E 026°01'10 9.8
2014-Sep-12 10:33N 37°18' E 026°10'10 9.8
2014-Sep-12 09:33N 37°12' E 026°19'10 9.7
2014-Sep-12 08:33N 37°06' E 026°29'10 9.8
2014-Sep-12 07:33N 36°58' E 026°37'10 9.5
2014-Sep-12 06:32N 36°51' E 026°44'10 9.4
2014-Sep-12 05:31N 36°43' E 026°51'9 9.1
2014-Sep-12 04:32N 36°36' E 026°58'10 9.3
2014-Sep-12 03:30N 36°27' E 027°03'  

Dump ship's entire track history